createdAt,value
2023-02-28T00:00:37.885Z,100446.78
2023-02-28T00:03:07.230Z,100446.97
2023-02-28T00:05:36.326Z,100447.13
2023-02-28T00:08:05.902Z,100439.56
2023-02-28T00:10:35.397Z,100450.84
2023-02-28T00:13:08.069Z,100445.88
2023-02-28T00:15:38.420Z,100444.25
2023-02-28T00:18:07.488Z,100437.47
2023-02-28T00:20:36.448Z,100451.34
2023-02-28T00:23:05.506Z,100446.19
2023-02-28T00:25:34.487Z,100444.59
2023-02-28T00:28:03.504Z,100442.19
2023-02-28T00:30:32.552Z,100441.38
2023-02-28T00:33:02.877Z,100440.94
2023-02-28T00:35:31.946Z,100438.69
2023-02-28T00:38:00.939Z,100436.28
2023-02-28T00:40:30.703Z,100436.59
2023-02-28T00:43:02.687Z,100440.16
2023-02-28T00:45:31.982Z,100438.69
2023-02-28T00:48:02.277Z,100451.75
2023-02-28T00:50:31.447Z,100443.41
2023-02-28T00:53:00.377Z,100446.13
2023-02-28T00:55:29.614Z,100438.56
2023-02-28T00:57:58.532Z,100445.66
2023-02-28T01:00:30.987Z,100444.06
2023-02-28T01:03:00.059Z,100443.41
2023-02-28T01:05:30.407Z,100435.06
2023-02-28T01:08:01.630Z,100439.22
2023-02-28T01:10:32.576Z,100441.97
2023-02-28T01:13:01.616Z,100437.97
2023-02-28T01:15:30.744Z,100440.72
2023-02-28T01:17:59.987Z,100442.47
2023-02-28T01:20:30.421Z,100434.13
2023-02-28T01:22:59.413Z,100433.47
2023-02-28T01:25:28.543Z,100437.34
2023-02-28T01:27:58.028Z,100434.13
2023-02-28T01:30:29.974Z,100442.84
2023-02-28T01:32:58.935Z,100425.13
2023-02-28T01:35:29.756Z,100429.66
2023-02-28T01:38:06.832Z,100429.84
2023-02-28T01:40:41.548Z,100429.19
2023-02-28T01:43:24.119Z,100427.59
2023-02-28T01:45:53.803Z,100423.56
2023-02-28T01:48:27.189Z,100422.75
2023-02-28T01:51:02.536Z,100423.56
2023-02-28T01:53:36.084Z,100422.09
2023-02-28T01:56:12.345Z,100423.25
2023-02-28T01:58:41.405Z,100418.25
2023-02-28T02:01:10.398Z,100412.31
2023-02-28T02:03:39.493Z,100414.91
2023-02-28T02:06:09.973Z,100421.66
2023-02-28T02:08:39.550Z,100410.69
2023-02-28T02:11:13.994Z,100415.22
2023-02-28T02:14:05.479Z,100414.59
2023-02-28T02:16:51.203Z,100411.34
2023-02-28T02:20:16.502Z,100408.47
2023-02-28T02:23:39.204Z,100407.19
2023-02-28T02:26:44.846Z,100404.94
2023-02-28T02:29:49.853Z,100402.69
2023-02-28T02:33:11.678Z,100402.69
2023-02-28T02:35:49.862Z,100407.81
2023-02-28T02:38:33.165Z,100407.81
2023-02-28T02:41:13.954Z,100407.00
2023-02-28T02:43:50.691Z,100401.41
2023-02-28T02:46:26.180Z,100420.03
2023-02-28T02:49:00.841Z,100414.13
2023-02-28T02:51:34.980Z,100408.16
2023-02-28T02:54:11.114Z,100415.09
2023-02-28T02:56:45.959Z,100409.28
2023-02-28T02:59:22.499Z,100419.59
2023-02-28T03:01:55.705Z,100406.06
2023-02-28T03:04:30.096Z,100410.44
2023-02-28T03:07:02.816Z,100411.38
2023-02-28T03:09:36.470Z,100411.53
2023-02-28T03:12:10.277Z,100408.34
2023-02-28T03:14:59.119Z,100412.22
2023-02-28T03:18:04.318Z,100412.38
2023-02-28T03:20:43.339Z,100407.22
2023-02-28T03:23:22.117Z,100402.06
2023-02-28T03:26:01.480Z,100407.22
2023-02-28T03:28:39.810Z,100409.81
2023-02-28T03:31:18.742Z,100398.84
2023-02-28T03:33:55.886Z,100410.13
2023-02-28T03:36:29.746Z,100404.97
2023-02-28T03:39:03.579Z,100408.53
2023-02-28T03:41:41.323Z,100400.97
2023-02-28T03:44:16.886Z,100403.53
2023-02-28T03:46:53.782Z,100400.97
2023-02-28T03:49:30.214Z,100402.72
2023-02-28T03:52:02.715Z,100401.13
2023-02-28T03:54:37.370Z,100393.41
2023-02-28T03:57:14.102Z,100392.75
2023-02-28T03:59:47.394Z,100391.31
2023-02-28T04:02:16.457Z,100394.06
2023-02-28T04:04:49.757Z,100405.31
2023-02-28T04:07:19.508Z,100407.22
2023-02-28T04:09:53.983Z,100408.22
2023-02-28T04:12:24.126Z,100403.22
2023-02-28T04:14:55.458Z,100407.56
2023-02-28T04:17:24.597Z,100410.94
2023-02-28T04:19:55.075Z,100409.31
2023-02-28T04:22:26.859Z,100408.53
2023-02-28T04:24:57.230Z,100403.38
2023-02-28T04:27:26.244Z,100396.81
2023-02-28T04:29:55.225Z,100398.56
2023-02-28T04:32:24.266Z,100414.00
2023-02-28T04:34:55.499Z,100407.25
2023-02-28T04:37:28.814Z,100405.63
2023-02-28T04:39:59.146Z,100409.16
2023-02-28T04:42:28.211Z,100397.28
2023-02-28T04:44:57.163Z,100403.38
2023-02-28T04:47:26.256Z,100406.13
2023-02-28T04:49:55.246Z,100400.19
2023-02-28T04:52:24.730Z,100397.91
2023-02-28T04:54:53.702Z,100401.47
2023-02-28T04:57:24.043Z,100408.53
2023-02-28T04:59:53.044Z,100404.19
2023-02-28T05:02:22.297Z,100404.19
2023-02-28T05:04:51.302Z,100410.13
2023-02-28T05:07:20.378Z,100404.19
2023-02-28T05:09:49.384Z,100403.38
2023-02-28T05:12:18.456Z,100407.91
2023-02-28T05:14:48.803Z,100408.84
2023-02-28T05:17:17.857Z,100408.84
2023-02-28T05:19:46.819Z,100414.81
2023-02-28T05:22:18.058Z,100412.38
2023-02-28T05:24:47.021Z,100411.41
2023-02-28T05:27:16.075Z,100414.00
2023-02-28T05:29:47.594Z,100412.38
2023-02-28T05:32:18.258Z,100417.53
2023-02-28T05:34:47.435Z,100420.25
2023-02-28T05:37:17.621Z,100410.13
2023-02-28T05:39:46.638Z,100411.09
2023-02-28T05:42:15.686Z,100424.91
2023-02-28T05:44:44.723Z,100419.97
2023-02-28T05:47:16.349Z,100416.56
2023-02-28T05:49:46.788Z,100418.47
2023-02-28T05:52:19.253Z,100424.59
2023-02-28T05:54:50.474Z,100430.72
2023-02-28T05:57:24.553Z,100430.88
2023-02-28T05:59:56.909Z,100428.47
2023-02-28T06:02:25.989Z,100430.22
2023-02-28T06:04:56.359Z,100441.31
2023-02-28T06:07:25.360Z,100436.16
2023-02-28T06:09:54.334Z,100433.59
2023-02-28T06:12:23.364Z,100433.44
2023-02-28T06:14:52.406Z,100436.94
2023-02-28T06:17:21.446Z,100434.56
2023-02-28T06:19:50.447Z,100442.28
2023-02-28T06:22:20.824Z,100433.75
2023-02-28T06:24:53.783Z,100430.38
2023-02-28T06:27:23.159Z,100437.31
2023-02-28T06:29:56.571Z,100437.47
2023-02-28T06:32:25.660Z,100441.63
2023-02-28T06:34:55.033Z,100446.94
2023-02-28T06:37:27.137Z,100447.91
2023-02-28T06:39:57.845Z,100448.69
2023-02-28T06:42:29.932Z,100447.91
2023-02-28T06:44:59.267Z,100446.13
2023-02-28T06:47:28.348Z,100446.78
2023-02-28T06:49:57.332Z,100443.22
2023-02-28T06:52:27.696Z,100452.38
2023-02-28T06:55:01.160Z,100453.03
2023-02-28T06:57:31.964Z,100454.47
2023-02-28T07:00:02.092Z,100456.13
2023-02-28T07:02:32.637Z,100461.88
2023-02-28T07:05:01.631Z,100459.00
2023-02-28T07:07:32.076Z,100467.06
2023-02-28T07:10:01.131Z,100467.53
2023-02-28T07:12:30.317Z,100468.81
2023-02-28T07:14:59.426Z,100460.63
2023-02-28T07:17:28.402Z,100466.72
2023-02-28T07:20:00.386Z,100472.84
2023-02-28T07:22:29.748Z,100467.72
2023-02-28T07:25:00.142Z,100468.84
2023-02-28T07:27:31.391Z,100470.56
2023-02-28T07:30:02.608Z,100471.72
2023-02-28T07:32:31.806Z,100464.13
2023-02-28T07:35:01.112Z,100473.50
2023-02-28T07:37:32.574Z,100473.31
2023-02-28T07:40:05.297Z,100468.94
2023-02-28T07:42:34.853Z,100467.31
2023-02-28T07:45:08.293Z,100476.66
2023-02-28T07:47:37.667Z,100479.19
2023-02-28T07:50:08.080Z,100474.00
2023-02-28T07:52:38.459Z,100475.41
2023-02-28T07:55:38.247Z,100475.84
2023-02-28T08:01:47.677Z,100480.25
2023-02-28T08:04:16.744Z,100482.81
2023-02-28T08:06:45.810Z,100470.50
2023-02-28T08:09:15.518Z,100465.56
2023-02-28T08:11:45.888Z,100480.69
2023-02-28T08:14:14.910Z,100478.34
2023-02-28T08:16:44.812Z,100480.34
2023-02-28T08:19:13.924Z,100478.94
2023-02-28T08:21:43.071Z,100473.22
2023-02-28T08:24:12.003Z,100475.22
2023-02-28T08:26:41.084Z,100479.63
2023-02-28T08:29:13.944Z,100480.59
2023-02-28T08:31:43.625Z,100464.47
2023-02-28T08:34:15.400Z,100470.66
2023-02-28T08:36:45.931Z,100460.47
2023-02-28T08:39:15.148Z,100468.25
2023-02-28T08:41:46.827Z,100458.84
2023-02-28T08:44:18.322Z,100457.41
2023-02-28T08:46:47.321Z,100449.16
2023-02-28T08:49:16.927Z,100463.56
2023-02-28T08:51:45.854Z,100452.50
2023-02-28T08:54:20.380Z,100456.63
2023-02-28T08:56:49.416Z,100458.88
2023-02-28T08:59:19.949Z,100455.19
2023-02-28T09:01:48.950Z,100458.47
2023-02-28T09:04:21.182Z,100460.91
2023-02-28T09:06:53.551Z,100469.38
2023-02-28T09:09:22.577Z,100453.91
2023-02-28T09:11:51.521Z,100449.19
2023-02-28T09:14:21.974Z,100456.63
2023-02-28T09:16:51.502Z,100454.88
2023-02-28T09:19:20.642Z,100456.56
2023-02-28T09:21:49.559Z,100455.41
2023-02-28T09:24:19.180Z,100456.28
2023-02-28T09:26:56.852Z,100466.31
2023-02-28T09:29:36.839Z,100447.03
2023-02-28T09:32:06.891Z,100448.91
2023-02-28T09:34:39.763Z,100464.34
2023-02-28T09:37:09.490Z,100466.41
2023-02-28T09:39:38.505Z,100459.84
2023-02-28T09:42:09.334Z,100477.28
2023-02-28T09:44:45.344Z,100441.34
2023-02-28T09:47:21.181Z,100449.16
2023-02-28T09:49:51.135Z,100460.38
2023-02-28T09:52:22.687Z,100450.19
2023-02-28T09:54:51.819Z,100445.81
2023-02-28T09:57:28.940Z,100445.22
2023-02-28T10:00:13.537Z,100436.44
2023-02-28T10:02:55.942Z,100434.88
2023-02-28T10:05:29.668Z,100435.66
2023-02-28T10:08:09.185Z,100437.25
2023-02-28T10:10:42.856Z,100453.44
2023-02-28T10:13:24.280Z,100436.81
2023-02-28T10:16:00.525Z,100436.38
2023-02-28T10:18:38.930Z,100439.97
2023-02-28T10:21:19.330Z,100443.72
2023-02-28T10:23:49.366Z,100460.31
2023-02-28T10:26:21.424Z,100441.66
2023-02-28T10:28:50.476Z,100436.25
2023-02-28T10:31:25.257Z,100448.06
2023-02-28T10:33:55.079Z,100454.66
2023-02-28T10:36:24.826Z,100449.06
2023-02-28T10:38:53.884Z,100463.13
2023-02-28T10:41:35.686Z,100444.78
2023-02-28T10:44:23.325Z,100453.00
2023-02-28T10:46:57.703Z,100476.47
2023-02-28T10:49:30.126Z,100449.66
2023-02-28T10:52:02.178Z,100458.06
2023-02-28T10:54:36.281Z,100455.84
2023-02-28T10:57:14.719Z,100444.84
2023-02-28T10:59:45.310Z,100451.28
2023-02-28T11:02:36.258Z,100444.63
2023-02-28T11:05:27.860Z,100446.59
2023-02-28T11:08:00.433Z,100446.38
2023-02-28T11:10:35.702Z,100438.00
2023-02-28T11:13:05.695Z,100438.81
2023-02-28T11:15:36.357Z,100448.22
2023-02-28T11:18:25.335Z,100436.03
2023-02-28T11:20:58.735Z,100440.25
2023-02-28T11:23:36.470Z,100436.25
2023-02-28T11:26:10.631Z,100434.03
2023-02-28T11:28:42.025Z,100421.78
2023-02-28T11:31:23.385Z,100429.16
2023-02-28T11:33:56.738Z,100429.13
2023-02-28T11:36:28.839Z,100429.09
2023-02-28T11:39:02.642Z,100430.06
2023-02-28T11:41:51.843Z,100415.84
2023-02-28T11:44:36.080Z,100417.41
2023-02-28T11:47:13.955Z,100413.72
2023-02-28T11:49:54.288Z,100421.66
2023-02-28T11:52:37.834Z,100423.38
2023-02-28T11:55:19.109Z,100423.31
2023-02-28T11:58:03.699Z,100417.59
2023-02-28T12:00:49.575Z,100408.66
2023-02-28T12:03:31.456Z,100411.16
2023-02-28T12:06:16.264Z,100408.69
2023-02-28T12:09:10.516Z,100405.81
2023-02-28T12:11:55.212Z,100407.13
2023-02-28T12:14:57.625Z,100400.25
2023-02-28T12:17:44.136Z,100418.38
2023-02-28T12:20:26.468Z,100411.34
2023-02-28T12:23:12.964Z,100409.53
2023-02-28T12:26:05.065Z,100410.25
2023-02-28T12:28:40.434Z,100410.69
2023-02-28T12:31:18.587Z,100391.13
2023-02-28T12:33:53.991Z,100399.81
2023-02-28T12:36:27.329Z,100401.69
2023-02-28T12:39:03.141Z,100390.97
2023-02-28T12:41:39.701Z,100406.72
2023-02-28T12:44:14.755Z,100410.84
2023-02-28T12:46:46.857Z,100402.38
2023-02-28T12:49:21.355Z,100396.91
2023-02-28T12:51:51.808Z,100413.84
2023-02-28T12:54:28.735Z,100402.09
2023-02-28T12:57:10.244Z,100398.38
2023-02-28T12:59:43.972Z,100391.78
2023-02-28T13:03:05.600Z,100396.31
2023-02-28T13:05:58.066Z,100398.16
2023-02-28T13:09:07.241Z,100394.22
2023-02-28T13:11:46.972Z,100398.84
2023-02-28T13:14:28.057Z,100391.25
2023-02-28T13:17:04.974Z,100396.88
2023-02-28T13:19:36.935Z,100395.25
2023-02-28T13:22:07.134Z,100397.69
2023-02-28T13:24:47.550Z,100404.44
2023-02-28T13:27:39.852Z,100408.84
2023-02-28T13:31:05.741Z,100408.44
2023-02-28T13:33:36.386Z,100404.63
2023-02-28T13:36:31.082Z,100408.00
2023-02-28T13:39:03.153Z,100401.03
2023-02-28T13:41:49.655Z,100410.00
2023-02-28T13:44:24.642Z,100405.63
2023-02-28T13:47:26.710Z,100400.41
2023-02-28T13:49:55.913Z,100392.22
2023-02-28T13:52:27.643Z,100393.63
2023-02-28T13:55:23.154Z,100394.41
2023-02-28T13:58:13.924Z,100393.19
2023-02-28T14:01:05.496Z,100396.38
2023-02-28T14:04:04.719Z,100401.31
2023-02-28T14:06:35.977Z,100394.13
2023-02-28T14:09:21.296Z,100404.31
2023-02-28T14:11:53.799Z,100399.69
2023-02-28T14:14:58.994Z,100407.66
2023-02-28T14:17:29.656Z,100390.28
2023-02-28T14:20:00.397Z,100401.03
2023-02-28T14:22:53.321Z,100406.00
2023-02-28T14:25:34.732Z,100409.94
2023-02-28T14:28:16.372Z,100418.13
2023-02-28T14:31:02.054Z,100412.09
2023-02-28T14:34:07.935Z,100410.47
2023-02-28T14:36:41.356Z,100408.81
2023-02-28T14:39:16.019Z,100411.56
2023-02-28T14:41:48.902Z,100413.13
2023-02-28T14:44:21.561Z,100411.13
2023-02-28T14:46:53.484Z,100410.28
2023-02-28T14:49:28.585Z,100406.22
2023-02-28T14:52:16.979Z,100402.16
2023-02-28T14:54:46.956Z,100406.50
2023-02-28T14:57:25.982Z,100398.31
2023-02-28T15:00:05.399Z,100406.81
2023-02-28T15:02:37.674Z,100405.59
2023-02-28T15:05:27.950Z,100403.16
2023-02-28T15:08:14.233Z,100391.38
2023-02-28T15:10:45.994Z,100387.19
2023-02-28T15:13:17.354Z,100384.59
2023-02-28T15:16:02.957Z,100387.81
2023-02-28T15:18:48.574Z,100386.00
2023-02-28T15:21:22.649Z,100386.81
2023-02-28T15:23:57.294Z,100390.00
2023-02-28T15:26:33.049Z,100392.41
2023-02-28T15:29:04.488Z,100384.81
2023-02-28T15:31:53.922Z,100384.81
2023-02-28T15:34:40.611Z,100396.19
2023-02-28T15:37:31.041Z,100381.00
2023-02-28T15:40:12.869Z,100401.13
2023-02-28T15:42:43.642Z,100393.91
2023-02-28T15:45:36.110Z,100389.28
2023-02-28T15:48:20.295Z,100397.03
2023-02-28T15:50:55.574Z,100396.56
2023-02-28T15:53:29.852Z,100391.59
2023-02-28T15:56:04.167Z,100393.75
2023-02-28T15:58:34.548Z,100391.34
2023-02-28T16:01:23.096Z,100401.69
2023-02-28T16:03:56.387Z,100404.13
2023-02-28T16:06:35.404Z,100401.34
2023-02-28T16:09:09.404Z,100403.75
2023-02-28T16:11:43.758Z,100403.75
2023-02-28T16:14:19.892Z,100407.28
2023-02-28T16:16:53.219Z,100408.91
2023-02-28T16:19:23.517Z,100397.75
2023-02-28T16:21:53.015Z,100408.91
2023-02-28T16:24:23.454Z,100408.09
2023-02-28T16:26:55.019Z,100410.69
2023-02-28T16:29:29.292Z,100409.28
2023-02-28T16:31:58.623Z,100414.66
2023-02-28T16:34:28.310Z,100410.25
2023-02-28T16:36:57.356Z,100407.66
2023-02-28T16:39:27.766Z,100407.84
2023-02-28T16:41:56.874Z,100410.44
2023-02-28T16:44:30.955Z,100417.59
2023-02-28T16:47:03.130Z,100413.59
2023-02-28T16:49:33.204Z,100418.78
2023-02-28T16:52:02.363Z,100426.16
2023-02-28T16:54:32.822Z,100428.75
2023-02-28T16:57:02.293Z,100416.78
2023-02-28T16:59:31.595Z,100417.25
2023-02-28T17:02:00.898Z,100422.22
2023-02-28T17:04:30.194Z,100421.25
2023-02-28T17:07:00.281Z,100419.28
2023-02-28T17:09:40.248Z,100426.03
2023-02-28T17:12:13.107Z,100425.22
2023-02-28T17:14:42.255Z,100434.41
2023-02-28T17:17:18.812Z,100436.03
2023-02-28T17:19:47.906Z,100437.63
2023-02-28T17:22:17.243Z,100437.63
2023-02-28T17:24:46.713Z,100447.97
2023-02-28T17:27:17.112Z,100447.00
2023-02-28T17:29:46.148Z,100454.75
2023-02-28T17:32:18.343Z,100454.94
2023-02-28T17:34:47.789Z,100461.94
2023-02-28T17:37:17.194Z,100451.56
2023-02-28T17:39:46.255Z,100459.34
2023-02-28T17:42:16.644Z,100459.53
2023-02-28T17:44:48.665Z,100463.88
2023-02-28T17:47:17.661Z,100470.06
2023-02-28T17:49:46.838Z,100456.13
2023-02-28T17:52:15.847Z,100462.78
2023-02-28T17:54:47.011Z,100469.31
2023-02-28T17:57:21.309Z,100464.34
2023-02-28T17:59:50.286Z,100465.47
2023-02-28T18:02:19.308Z,100472.66
2023-02-28T18:04:48.302Z,100467.66
2023-02-28T18:07:17.341Z,100463.66
2023-02-28T18:09:46.309Z,100469.78
2023-02-28T18:12:15.330Z,100467.38
2023-02-28T18:14:46.260Z,100472.16
2023-02-28T18:17:15.326Z,100465.56
2023-02-28T18:19:44.320Z,100472.50
2023-02-28T18:22:13.392Z,100469.25
2023-02-28T18:24:42.372Z,100474.00
2023-02-28T18:27:12.524Z,100471.59
2023-02-28T18:29:41.984Z,100470.00
2023-02-28T18:32:12.522Z,100465.97
2023-02-28T18:34:41.612Z,100476.50
2023-02-28T18:37:12.912Z,100475.72
2023-02-28T18:39:42.874Z,100473.31
2023-02-28T18:42:11.864Z,100473.69
2023-02-28T18:44:43.854Z,100471.09
2023-02-28T18:47:14.649Z,100466.28
2023-02-28T18:49:43.622Z,100474.22
2023-02-28T18:52:12.674Z,100467.00
2023-02-28T18:54:41.689Z,100466.59
2023-02-28T18:57:10.703Z,100467.75
2023-02-28T18:59:42.705Z,100471.66
2023-02-28T19:02:15.315Z,100472.00
2023-02-28T19:04:47.258Z,100477.41
2023-02-28T19:07:16.275Z,100475.94
2023-02-28T19:09:45.399Z,100476.31
2023-02-28T19:12:15.547Z,100472.50
2023-02-28T19:14:44.577Z,100463.13
2023-02-28T19:17:16.123Z,100473.84
2023-02-28T19:19:45.150Z,100466.44
2023-02-28T19:22:14.216Z,100466.59
2023-02-28T19:24:43.184Z,100467.78
2023-02-28T19:27:12.179Z,100472.50
2023-02-28T19:29:41.204Z,100470.09
2023-02-28T19:32:10.342Z,100466.09
2023-02-28T19:34:40.740Z,100466.25
2023-02-28T19:37:12.496Z,100469.19
2023-02-28T19:39:45.739Z,100480.72
2023-02-28T19:42:17.132Z,100484.47
2023-02-28T19:44:46.514Z,100482.88
2023-02-28T19:47:16.754Z,100479.81
2023-02-28T19:49:47.146Z,100475.00
2023-02-28T19:52:16.187Z,100477.75
2023-02-28T19:54:45.192Z,100477.16
2023-02-28T19:57:14.299Z,100467.94
2023-02-28T19:59:43.319Z,100472.50
2023-02-28T20:02:16.087Z,100464.94
2023-02-28T20:04:49.631Z,100478.84
2023-02-28T20:07:20.747Z,100472.06
2023-02-28T20:09:49.878Z,100479.81
2023-02-28T20:12:24.811Z,100469.81
2023-02-28T20:14:56.522Z,100475.19
2023-02-28T20:17:26.065Z,100469.38
2023-02-28T20:19:56.541Z,100472.31
2023-02-28T20:22:25.603Z,100480.25
2023-02-28T20:24:57.619Z,100476.25
2023-02-28T20:27:26.660Z,100467.84
2023-02-28T20:29:55.648Z,100475.78
2023-02-28T20:32:24.638Z,100475.00
2023-02-28T20:34:55.646Z,100482.94
2023-02-28T20:37:24.671Z,100469.38
2023-02-28T20:39:53.667Z,100474.88
2023-02-28T20:42:22.685Z,100479.44
2023-02-28T20:44:51.627Z,100466.69
2023-02-28T20:47:23.661Z,100469.63
2023-02-28T20:49:52.937Z,100467.22
2023-02-28T20:52:23.317Z,100465.81
2023-02-28T20:54:52.996Z,100455.63
2023-02-28T20:57:21.966Z,100461.75
2023-02-28T20:59:51.016Z,100461.16
2023-02-28T21:02:23.039Z,100457.31
2023-02-28T21:04:54.795Z,100463.44
2023-02-28T21:07:26.243Z,100463.78
2023-02-28T21:09:56.081Z,100465.75
2023-02-28T21:12:25.119Z,100462.53
2023-02-28T21:14:54.174Z,100459.34
2023-02-28T21:17:23.164Z,100466.47
2023-02-28T21:19:52.177Z,100470.19
2023-02-28T21:22:21.175Z,100469.38
2023-02-28T21:24:51.584Z,100471.31
2023-02-28T21:27:20.696Z,100467.91
2023-02-28T21:29:49.795Z,100468.09
2023-02-28T21:32:18.837Z,100468.28
2023-02-28T21:34:50.883Z,100464.88
2023-02-28T21:37:20.327Z,100471.84
2023-02-28T21:39:49.319Z,100460.88
2023-02-28T21:42:19.686Z,100463.63
2023-02-28T21:44:48.651Z,100473.16
2023-02-28T21:47:17.921Z,100471.72
2023-02-28T21:49:46.971Z,100471.72
2023-02-28T21:52:16.135Z,100475.44
2023-02-28T21:54:45.384Z,100471.44
2023-02-28T21:57:16.030Z,100474.38
2023-02-28T21:59:46.587Z,100472.78
2023-02-28T22:02:15.648Z,100477.94
2023-02-28T22:04:44.653Z,100473.91
2023-02-28T22:07:13.622Z,100472.47
2023-02-28T22:09:42.673Z,100471.84
2023-02-28T22:12:11.619Z,100476.19
2023-02-28T22:14:41.712Z,100472.19
2023-02-28T22:17:12.067Z,100463.81
2023-02-28T22:19:41.246Z,100463.03
2023-02-28T22:22:10.317Z,100462.22
2023-02-28T22:24:41.824Z,100459.81
2023-02-28T22:27:10.827Z,100461.75
2023-02-28T22:29:40.059Z,100461.91
2023-02-28T22:32:11.892Z,100461.28
2023-02-28T22:34:41.023Z,100467.44
2023-02-28T22:37:10.472Z,100465.03
2023-02-28T22:39:39.496Z,100466.78
2023-02-28T22:42:09.739Z,100469.53
2023-02-28T22:44:38.799Z,100471.31
2023-02-28T22:47:08.428Z,100467.13
2023-02-28T22:49:38.993Z,100469.09
2023-02-28T22:52:07.998Z,100472.63
2023-02-28T22:54:37.104Z,100465.22
2023-02-28T22:57:06.084Z,100467.97
2023-02-28T22:59:35.171Z,100467.38
2023-02-28T23:02:04.178Z,100475.09
2023-02-28T23:04:33.375Z,100471.88
2023-02-28T23:07:03.871Z,100480.44
2023-02-28T23:09:33.048Z,100474.63
2023-02-28T23:12:02.049Z,100467.22
2023-02-28T23:14:31.132Z,100484.34
2023-02-28T23:17:00.484Z,100485.28
2023-02-28T23:19:33.228Z,100484.66
2023-02-28T23:22:05.497Z,100480.47
2023-02-28T23:24:36.550Z,100484.03
2023-02-28T23:27:06.962Z,100481.59
2023-02-28T23:29:36.541Z,100486.16
2023-02-28T23:32:06.432Z,100489.50
2023-02-28T23:34:35.584Z,100492.09
2023-02-28T23:37:05.934Z,100488.72
2023-02-28T23:39:35.046Z,100493.06
2023-02-28T23:42:04.091Z,100493.91
2023-02-28T23:44:33.260Z,100496.63
2023-02-28T23:47:02.219Z,100497.59
2023-02-28T23:49:31.186Z,100496.81
2023-02-28T23:52:00.199Z,100491.81
2023-02-28T23:54:33.933Z,100487.00
2023-02-28T23:57:02.945Z,100489.56
2023-02-28T23:59:32.452Z,100487.97
